Canova, New Mexico
Current Conditions -  °F | °C
As of 6:55 AM on Monday 24 Nov 2014 (Local Time) from KLAM Reporting Station
Clear Clear  
Wind Chill: 20°   Ceiling: Unl
Heat Index: 20°   Visibility: 10mi
Dew Point: 10°   Wind: 0mph
Humidity: 65%   Direction: NA
Pressure: 30.09"   Gusts: NA
Location:  36.1592°N, 105.984°W
Report Text: KLAM 241355Z AUTO 00000KT 10SM CLR M06/M12 A3009 RMK AO2 T10651122
Loading
Personal Weather Stations






























Interactive Weather Map New forecast layout! Learn more

10-Day Weather Forecast

Advertisements
Track Severe Weather on mobile